Time;durP1;ratioP1;P1;durP2;ratioP2;P2;SDS_P1;SDS_P2;PMS_P1;PMS_P2;Temp;Humidity;BMP_temperature;BMP_pressure;BME280_temperature;BME280_humidity;BME280_pressure;Samples;Min_cycle;Max_cycle;Signal;HPM_P1;HPM_P2
2023/07/01 00:00:19;;;;;;;6.53;3.03;;;;;;;;;;4992804;28;20063;-68
2023/07/01 00:02:48;;;;;;;6.07;3.40;;;;;;;;;;4990413;28;20620;-68
2023/07/01 00:05:15;;;;;;;6.07;3.20;;;;;;;;;;4977919;28;20842;-68
2023/07/01 00:07:42;;;;;;;5.68;2.92;;;;;;;;;;4994877;28;20146;-68
2023/07/01 00:10:08;;;;;;;4.90;2.85;;;;;;;;;;4979687;28;20037;-68
2023/07/01 00:12:35;;;;;;;4.97;2.50;;;;;;;;;;4975462;28;20065;-67
2023/07/01 00:15:02;;;;;;;4.50;2.45;;;;;;;;;;4991001;28;20084;-68
2023/07/01 00:17:28;;;;;;;9.02;2.60;;;;;;;;;;4991104;28;20064;-68
2023/07/01 00:19:55;;;;;;;4.50;1.90;;;;;;;;;;4976033;28;20050;-68
2023/07/01 00:22:22;;;;;;;4.05;2.35;;;;;;;;;;4980305;28;20037;-67
2023/07/01 00:24:48;;;;;;;4.45;2.35;;;;;;;;;;5001369;28;20046;-67
2023/07/01 00:27:15;;;;;;;4.50;2.40;;;;;;;;;;5001758;28;20062;-67
2023/07/01 00:29:43;;;;;;;5.55;2.58;;;;;;;;;;5001099;28;20046;-69
2023/07/01 00:32:11;;;;;;;6.22;2.92;;;;;;;;;;4998753;28;20049;-69
2023/07/01 00:34:37;;;;;;;10.77;2.88;;;;;;;;;;5002740;28;20380;-68
2023/07/01 00:37:04;;;;;;;6.40;2.92;;;;;;;;;;4997657;28;20042;-67
2023/07/01 00:39:31;;;;;;;5.82;2.30;;;;;;;;;;4991117;28;20054;-68
2023/07/01 00:41:57;;;;;;;6.50;2.47;;;;;;;;;;4991934;28;20176;-66
2023/07/01 00:44:24;;;;;;;5.60;2.60;;;;;;;;;;4990820;28;20169;-66
2023/07/01 00:46:50;;;;;;;4.55;2.20;;;;;;;;;;4993983;28;20101;-65
2023/07/01 00:49:17;;;;;;;5.13;2.45;;;;;;;;;;4996733;28;20081;-65
2023/07/01 00:51:44;;;;;;;4.35;2.00;;;;;;;;;;4992956;28;20120;-66
2023/07/01 00:54:10;;;;;;;6.63;3.28;;;;;;;;;;4998094;28;20083;-64
2023/07/01 00:56:37;;;;;;;4.32;2.15;;;;;;;;;;4994992;28;20043;-65
2023/07/01 00:59:04;;;;;;;6.85;2.17;;;;;;;;;;4999831;28;20067;-65
2023/07/01 01:01:34;;;;;;;5.00;1.90;;;;;;;;;;4999062;28;20125;-66
2023/07/01 01:04:07;;;;;;;4.47;2.35;;;;;;;;;;4995608;28;20046;-66
2023/07/01 01:06:50;;;;;;;4.82;2.20;;;;;;;;;;4998932;28;20158;-66
2023/07/01 01:09:21;;;;;;;4.38;2.10;;;;;;;;;;4994047;28;20053;-67
2023/07/01 01:11:49;;;;;;;7.60;2.60;;;;;;;;;;4996909;28;20554;-67
2023/07/01 01:14:17;;;;;;;7.80;2.92;;;;;;;;;;5002377;28;20070;-66
2023/07/01 01:16:43;;;;;;;4.75;2.58;;;;;;;;;;4995324;28;20052;-66
2023/07/01 01:19:26;;;;;;;5.45;3.13;;;;;;;;;;4992281;28;20069;-66
2023/07/01 01:21:55;;;;;;;11.10;2.92;;;;;;;;;;4984705;28;20050;-66
2023/07/01 01:24:22;;;;;;;6.88;3.25;;;;;;;;;;4994835;28;20049;-68
2023/07/01 01:26:51;;;;;;;5.13;2.85;;;;;;;;;;4995494;28;20034;-66
2023/07/01 01:29:19;;;;;;;5.38;3.20;;;;;;;;;;4997362;28;20054;-66
2023/07/01 01:31:46;;;;;;;6.05;2.78;;;;;;;;;;4977064;28;20038;-66
2023/07/01 01:34:12;;;;;;;6.60;4.10;;;;;;;;;;4997822;28;20053;-66
2023/07/01 01:36:44;;;;;;;7.22;3.10;;;;;;;;;;4996570;28;20097;-66
2023/07/01 01:39:13;;;;;;;6.90;2.95;;;;;;;;;;4995279;28;20042;-67
2023/07/01 01:41:45;;;;;;;6.07;3.25;;;;;;;;;;4992771;28;20065;-66
2023/07/01 01:44:11;;;;;;;;;;;;;;;;;;4987130;28;20853;-68
2023/07/01 01:46:38;;;;;;;4.72;2.20;;;;;;;;;;4987479;28;19917;-66
2023/07/01 01:49:08;;;;;;;4.78;2.50;;;;;;;;;;4989084;28;20084;-67
2023/07/01 01:51:36;;;;;;;4.55;2.25;;;;;;;;;;4983452;28;20074;-66
2023/07/01 01:54:05;;;;;;;5.13;2.22;;;;;;;;;;4984063;28;20038;-67
2023/07/01 01:56:32;;;;;;;6.82;2.17;;;;;;;;;;4983679;28;20042;-67
2023/07/01 01:59:00;;;;;;;5.35;2.30;;;;;;;;;;4983421;28;20045;-66
2023/07/01 02:01:26;;;;;;;5.75;2.42;;;;;;;;;;4982604;28;20041;-67
2023/07/01 02:03:53;;;;;;;5.18;2.30;;;;;;;;;;4985440;28;20042;-65
2023/07/01 02:06:20;;;;;;;4.60;2.22;;;;;;;;;;4981481;28;20837;-64
2023/07/01 02:08:46;;;;;;;6.45;2.47;;;;;;;;;;4982710;28;22291;-65
2023/07/01 02:11:13;;;;;;;4.65;2.72;;;;;;;;;;4986912;28;20108;-66
2023/07/01 02:13:40;;;;;;;4.65;2.72;;;;;;;;;;4985600;28;20046;-67
2023/07/01 02:16:06;;;;;;;4.60;2.63;;;;;;;;;;4985062;28;20518;-66
2023/07/01 02:18:33;;;;;;;4.55;2.42;;;;;;;;;;4981792;28;20069;-66
2023/07/01 02:21:00;;;;;;;5.38;2.80;;;;;;;;;;4987323;28;20046;-67
2023/07/01 02:23:26;;;;;;;10.00;2.60;;;;;;;;;;4984193;28;20050;-67
2023/07/01 02:25:53;;;;;;;6.22;2.58;;;;;;;;;;4986460;28;20172;-67
2023/07/01 02:28:20;;;;;;;4.78;2.80;;;;;;;;;;4987187;28;20065;-65
2023/07/01 02:30:47;;;;;;;5.13;2.45;;;;;;;;;;4973235;28;20104;-66
2023/07/01 02:33:13;;;;;;;4.68;2.20;;;;;;;;;;4983334;28;20463;-68
2023/07/01 02:35:40;;;;;;;5.25;2.78;;;;;;;;;;4985690;28;20585;-66
2023/07/01 02:38:08;;;;;;;4.60;2.42;;;;;;;;;;4985559;28;20554;-67
2023/07/01 02:40:35;;;;;;;6.80;2.95;;;;;;;;;;4997654;28;20038;-66
2023/07/01 02:43:02;;;;;;;6.47;2.85;;;;;;;;;;4982458;28;20137;-66
2023/07/01 02:45:29;;;;;;;9.75;2.60;;;;;;;;;;4981989;28;20073;-66
2023/07/01 02:47:55;;;;;;;5.78;2.75;;;;;;;;;;4968006;28;20481;-67
2023/07/01 02:50:22;;;;;;;6.10;2.80;;;;;;;;;;4974397;28;20045;-67
2023/07/01 02:52:49;;;;;;;7.00;3.30;;;;;;;;;;4983904;28;20479;-66
2023/07/01 02:55:15;;;;;;;5.95;2.95;;;;;;;;;;4985107;28;20050;-67
2023/07/01 02:57:42;;;;;;;5.32;2.70;;;;;;;;;;4982438;28;20073;-68
2023/07/01 03:00:11;;;;;;;5.95;2.60;;;;;;;;;;4982659;28;20222;-67
2023/07/01 03:02:37;;;;;;;7.10;2.80;;;;;;;;;;4981621;28;20042;-67
2023/07/01 03:05:04;;;;;;;10.13;2.80;;;;;;;;;;4983714;28;20192;-66
2023/07/01 03:07:31;;;;;;;6.47;2.75;;;;;;;;;;4982759;28;20037;-66
2023/07/01 03:09:57;;;;;;;5.20;3.03;;;;;;;;;;4983494;28;20080;-64
2023/07/01 03:12:24;;;;;;;9.20;3.25;;;;;;;;;;4986033;28;20132;-65
2023/07/01 03:14:51;;;;;;;6.43;3.40;;;;;;;;;;4984362;28;20046;-67
2023/07/01 03:17:17;;;;;;;7.72;3.20;;;;;;;;;;4985006;28;20045;-66
2023/07/01 03:19:44;;;;;;;5.60;3.10;;;;;;;;;;4983237;28;20119;-66
2023/07/01 03:22:10;;;;;;;6.70;2.83;;;;;;;;;;4983769;28;22024;-66
2023/07/01 03:24:37;;;;;;;6.97;3.08;;;;;;;;;;4982910;28;20046;-68
2023/07/01 03:27:04;;;;;;;5.72;2.63;;;;;;;;;;4983863;28;20486;-68
2023/07/01 03:29:31;;;;;;;6.50;3.40;;;;;;;;;;4983380;28;20050;-67
2023/07/01 03:31:57;;;;;;;8.95;3.20;;;;;;;;;;4982776;28;20048;-67
2023/07/01 03:34:24;;;;;;;8.07;3.30;;;;;;;;;;4979731;28;20071;-67
2023/07/01 03:36:50;;;;;;;11.52;3.38;;;;;;;;;;4982363;28;20046;-67
2023/07/01 03:39:17;;;;;;;9.70;2.85;;;;;;;;;;4984010;28;20049;-67
2023/07/01 03:41:44;;;;;;;5.10;3.00;;;;;;;;;;4984103;28;20046;-67
2023/07/01 03:44:11;;;;;;;7.70;2.97;;;;;;;;;;4984300;28;20077;-68
2023/07/01 03:46:37;;;;;;;5.60;2.90;;;;;;;;;;4986516;28;20401;-66
2023/07/01 03:49:04;;;;;;;9.35;3.25;;;;;;;;;;4988591;28;20133;-66
2023/07/01 03:51:32;;;;;;;6.15;2.80;;;;;;;;;;4988924;28;20088;-67
2023/07/01 03:53:59;;;;;;;5.28;2.85;;;;;;;;;;4985476;28;20388;-66
2023/07/01 03:56:26;;;;;;;5.95;3.47;;;;;;;;;;4981610;28;20438;-67
2023/07/01 03:58:53;;;;;;;7.30;3.13;;;;;;;;;;4983475;28;20107;-66
2023/07/01 04:01:21;;;;;;;8.13;3.40;;;;;;;;;;4983819;28;20077;-65
2023/07/01 04:03:48;;;;;;;9.25;3.65;;;;;;;;;;4978161;28;20124;-66
2023/07/01 04:06:15;;;;;;;8.07;3.35;;;;;;;;;;4984911;28;20513;-67
2023/07/01 04:08:41;;;;;;;7.78;3.40;;;;;;;;;;4980077;28;20076;-65
2023/07/01 04:11:08;;;;;;;7.78;3.63;;;;;;;;;;4982312;28;20044;-66
2023/07/01 04:13:35;;;;;;;13.45;3.55;;;;;;;;;;4983987;28;20039;-66
2023/07/01 04:16:02;;;;;;;11.52;3.60;;;;;;;;;;4983432;28;20125;-66
2023/07/01 04:18:28;;;;;;;6.20;3.67;;;;;;;;;;4983155;28;20034;-66
2023/07/01 04:20:55;;;;;;;15.48;3.60;;;;;;;;;;4983864;28;20038;-66
2023/07/01 04:23:22;;;;;;;9.05;4.00;;;;;;;;;;4980874;28;20038;-66
2023/07/01 04:25:48;;;;;;;8.98;4.63;;;;;;;;;;4967067;28;20847;-66
2023/07/01 04:28:16;;;;;;;8.27;3.85;;;;;;;;;;4985353;28;20584;-66
2023/07/01 04:30:43;;;;;;;9.50;4.00;;;;;;;;;;4982443;28;20133;-66
2023/07/01 04:33:09;;;;;;;11.98;4.03;;;;;;;;;;4982695;28;20046;-68
2023/07/01 04:35:36;;;;;;;11.23;4.10;;;;;;;;;;4984057;28;20042;-66
2023/07/01 04:38:03;;;;;;;9.15;5.28;;;;;;;;;;4987898;28;20168;-68
2023/07/01 04:40:50;;;;;;;11.15;5.30;;;;;;;;;;4960166;28;20152;-65
2023/07/01 04:43:17;;;;;;;10.63;4.88;;;;;;;;;;4960613;28;20038;-65
2023/07/01 04:45:44;;;;;;;9.20;4.57;;;;;;;;;;4945126;28;20098;-64
2023/07/01 04:48:11;;;;;;;11.00;5.05;;;;;;;;;;4952385;28;20156;-65
2023/07/01 04:50:38;;;;;;;11.90;4.63;;;;;;;;;;4962377;28;20047;-66
2023/07/01 04:53:04;;;;;;;8.15;3.97;;;;;;;;;;4965325;28;20073;-67
2023/07/01 04:55:31;;;;;;;12.30;5.03;;;;;;;;;;4951278;28;20556;-66
2023/07/01 04:57:58;;;;;;;7.47;4.47;;;;;;;;;;4965056;28;20807;-67
2023/07/01 05:00:24;;;;;;;8.30;4.45;;;;;;;;;;4963058;28;20039;-68
2023/07/01 05:02:51;;;;;;;8.02;4.55;;;;;;;;;;4964416;28;20037;-65
2023/07/01 05:05:18;;;;;;;8.35;3.83;;;;;;;;;;4963560;28;20050;-66
2023/07/01 05:07:44;;;;;;;6.65;3.38;;;;;;;;;;4960368;28;20050;-67
2023/07/01 05:10:11;;;;;;;6.93;3.65;;;;;;;;;;4962464;28;20123;-67
2023/07/01 05:12:38;;;;;;;5.28;3.00;;;;;;;;;;4961786;28;20053;-66
2023/07/01 05:15:05;;;;;;;7.63;3.78;;;;;;;;;;4955580;28;20046;-66
2023/07/01 05:17:32;;;;;;;6.53;3.80;;;;;;;;;;4966211;28;20037;-67
2023/07/01 05:20:00;;;;;;;7.63;4.05;;;;;;;;;;4969550;28;20034;-67
2023/07/01 05:22:27;;;;;;;8.77;3.83;;;;;;;;;;4980157;28;20057;-64
2023/07/01 05:24:53;;;;;;;8.80;3.42;;;;;;;;;;4992026;28;20438;-65
2023/07/01 05:27:20;;;;;;;6.85;3.13;;;;;;;;;;4974142;28;20050;-65
2023/07/01 05:29:47;;;;;;;6.07;3.10;;;;;;;;;;4972454;28;20038;-66
2023/07/01 05:32:15;;;;;;;6.90;3.28;;;;;;;;;;4987785;28;20124;-69
2023/07/01 05:34:41;;;;;;;9.13;3.50;;;;;;;;;;4988026;28;20050;-67
2023/07/01 05:37:08;;;;;;;10.23;3.72;;;;;;;;;;4982954;28;20066;-67
2023/07/01 05:39:35;;;;;;;8.80;3.58;;;;;;;;;;4984488;28;20146;-66
2023/07/01 05:42:02;;;;;;;7.22;3.40;;;;;;;;;;4985388;28;20130;-67
2023/07/01 05:44:28;;;;;;;14.48;3.55;;;;;;;;;;4988126;28;20525;-66
2023/07/01 05:46:56;;;;;;;8.25;4.03;;;;;;;;;;4986674;28;20607;-66
2023/07/01 05:49:23;;;;;;;8.88;3.60;;;;;;;;;;4987872;28;20068;-67
2023/07/01 05:51:50;;;;;;;7.63;4.00;;;;;;;;;;4986980;28;20041;-67
2023/07/01 05:54:16;;;;;;;11.02;4.22;;;;;;;;;;4988178;28;20077;-67
2023/07/01 05:56:43;;;;;;;7.70;3.53;;;;;;;;;;4986923;28;20048;-66
2023/07/01 05:59:09;;;;;;;9.77;3.42;;;;;;;;;;4987122;28;20040;-69
2023/07/01 06:01:36;;;;;;;6.38;3.33;;;;;;;;;;4984914;28;20039;-66
2023/07/01 06:04:03;;;;;;;8.80;3.80;;;;;;;;;;4988058;28;20585;-66
2023/07/01 06:06:30;;;;;;;5.65;3.25;;;;;;;;;;4988572;28;20069;-67
2023/07/01 06:08:56;;;;;;;6.18;3.20;;;;;;;;;;4985561;28;20045;-68
2023/07/01 06:11:23;;;;;;;9.95;3.15;;;;;;;;;;4984049;28;20042;-67
2023/07/01 06:13:50;;;;;;;7.43;3.40;;;;;;;;;;4985359;28;22576;-69
2023/07/01 06:16:17;;;;;;;11.27;4.13;;;;;;;;;;4983521;28;20042;-67
2023/07/01 06:18:44;;;;;;;6.35;2.80;;;;;;;;;;4985822;28;20038;-67
2023/07/01 06:21:10;;;;;;;8.63;3.53;;;;;;;;;;4983871;28;20062;-67
2023/07/01 06:23:37;;;;;;;7.50;3.72;;;;;;;;;;4984630;28;20129;-66
2023/07/01 06:26:04;;;;;;;6.90;3.45;;;;;;;;;;4985885;28;20048;-66
2023/07/01 06:28:31;;;;;;;7.43;3.92;;;;;;;;;;4985199;28;20627;-66
2023/07/01 06:30:57;;;;;;;6.30;3.60;;;;;;;;;;4988347;28;20042;-66
2023/07/01 06:33:24;;;;;;;7.15;3.40;;;;;;;;;;4989254;28;20068;-68
2023/07/01 06:35:51;;;;;;;8.00;3.53;;;;;;;;;;4990730;28;20042;-65
2023/07/01 06:38:17;;;;;;;8.60;3.50;;;;;;;;;;4989602;28;20034;-67
2023/07/01 06:40:45;;;;;;;7.07;3.50;;;;;;;;;;4988646;28;20506;-67
2023/07/01 06:43:12;;;;;;;7.65;3.80;;;;;;;;;;4990004;28;20768;-66
2023/07/01 06:45:39;;;;;;;11.43;3.95;;;;;;;;;;4991522;28;20752;-66
2023/07/01 06:48:06;;;;;;;10.10;3.83;;;;;;;;;;4987755;28;20073;-67
2023/07/01 06:50:34;;;;;;;9.55;3.72;;;;;;;;;;4988332;28;20034;-69
2023/07/01 06:53:01;;;;;;;6.25;3.55;;;;;;;;;;4988614;28;20159;-67
2023/07/01 06:55:28;;;;;;;5.93;3.25;;;;;;;;;;4972824;28;20099;-67
2023/07/01 06:57:54;;;;;;;8.77;3.33;;;;;;;;;;4988176;28;20063;-67
2023/07/01 07:00:24;;;;;;;8.35;3.35;;;;;;;;;;4982678;28;20061;-67
2023/07/01 07:02:51;;;;;;;7.45;3.50;;;;;;;;;;4988225;28;20045;-67
2023/07/01 07:05:17;;;;;;;6.85;3.38;;;;;;;;;;4988574;28;20053;-68
2023/07/01 07:07:44;;;;;;;6.15;3.45;;;;;;;;;;4986846;28;20077;-68
2023/07/01 07:10:11;;;;;;;8.23;3.00;;;;;;;;;;4988473;28;20120;-66
2023/07/01 07:12:38;;;;;;;10.25;3.40;;;;;;;;;;4984876;28;20809;-67
2023/07/01 07:15:05;;;;;;;5.70;3.17;;;;;;;;;;4986658;28;20046;-66
2023/07/01 07:17:31;;;;;;;7.88;3.85;;;;;;;;;;4984890;28;20502;-67
2023/07/01 07:19:58;;;;;;;8.20;3.10;;;;;;;;;;4985153;28;20064;-67
2023/07/01 07:22:24;;;;;;;6.88;3.42;;;;;;;;;;4983110;28;20037;-64
2023/07/01 07:24:51;;;;;;;8.48;3.78;;;;;;;;;;4985581;28;20180;-65
2023/07/01 07:27:18;;;;;;;9.07;3.58;;;;;;;;;;4985261;28;20049;-67
2023/07/01 07:29:44;;;;;;;10.20;3.95;;;;;;;;;;4971892;28;20124;-67
2023/07/01 07:32:11;;;;;;;8.48;3.92;;;;;;;;;;4984895;28;20049;-67
2023/07/01 07:34:38;;;;;;;8.00;3.10;;;;;;;;;;4987995;28;20467;-68
2023/07/01 07:37:07;;;;;;;7.57;3.60;;;;;;;;;;4987687;28;20454;-68
2023/07/01 07:39:34;;;;;;;7.85;4.10;;;;;;;;;;4988407;28;20046;-67
2023/07/01 07:42:01;;;;;;;8.68;4.80;;;;;;;;;;4992870;28;20038;-67
2023/07/01 07:44:28;;;;;;;8.77;4.50;;;;;;;;;;4988566;28;20076;-67
2023/07/01 07:46:56;;;;;;;8.98;4.97;;;;;;;;;;4977985;28;22431;-69
2023/07/01 07:49:22;;;;;;;8.65;4.38;;;;;;;;;;4992100;28;20042;-68
2023/07/01 07:51:49;;;;;;;10.90;5.05;;;;;;;;;;4988418;28;20041;-68
2023/07/01 07:54:16;;;;;;;10.55;4.47;;;;;;;;;;4960584;28;20096;-67
2023/07/01 07:56:43;;;;;;;12.52;5.15;;;;;;;;;;4994768;28;20153;-65
2023/07/01 07:59:29;;;;;;;8.30;4.72;;;;;;;;;;4966223;28;20181;-68
2023/07/01 08:01:57;;;;;;;8.35;4.95;;;;;;;;;;4968183;28;20043;-68
2023/07/01 08:04:27;;;;;;;7.97;4.93;;;;;;;;;;4950040;28;20042;-67
2023/07/01 08:06:54;;;;;;;7.93;4.38;;;;;;;;;;4966652;28;20046;-66
2023/07/01 08:09:20;;;;;;;10.25;4.65;;;;;;;;;;4961853;28;20160;-67
2023/07/01 08:11:47;;;;;;;9.65;5.03;;;;;;;;;;4963576;28;20389;-66
2023/07/01 08:14:14;;;;;;;9.05;4.72;;;;;;;;;;4946989;28;20046;-66
2023/07/01 08:16:40;;;;;;;9.38;4.60;;;;;;;;;;4963107;28;20209;-67
2023/07/01 08:19:07;;;;;;;10.00;4.57;;;;;;;;;;4962824;28;20061;-66
2023/07/01 08:21:35;;;;;;;9.35;4.65;;;;;;;;;;4960893;28;20043;-64
2023/07/01 08:24:02;;;;;;;8.10;4.50;;;;;;;;;;4962331;28;20122;-66
2023/07/01 08:26:29;;;;;;;6.60;4.05;;;;;;;;;;4962489;28;20066;-66
2023/07/01 08:28:56;;;;;;;8.23;4.32;;;;;;;;;;4947360;28;20054;-67
2023/07/01 08:31:22;;;;;;;7.35;4.30;;;;;;;;;;4942162;28;20054;-67
2023/07/01 08:34:11;;;;;;;9.52;5.07;;;;;;;;;;4911373;29;20052;-66
2023/07/01 08:36:37;;;;;;;12.65;4.88;;;;;;;;;;4920103;28;20763;-67
2023/07/01 08:39:04;;;;;;;8.98;4.88;;;;;;;;;;4938155;28;20043;-66
2023/07/01 08:41:35;;;;;;;7.32;4.75;;;;;;;;;;4938313;28;21974;-66
2023/07/01 08:44:02;;;;;;;8.57;4.63;;;;;;;;;;4938751;28;20050;-67
2023/07/01 08:46:29;;;;;;;8.88;4.60;;;;;;;;;;4937214;28;20478;-67
2023/07/01 08:48:57;;;;;;;11.50;5.25;;;;;;;;;;4938380;28;20070;-67
2023/07/01 08:51:31;;;;;;;12.93;5.43;;;;;;;;;;4933166;28;20098;-68
2023/07/01 08:54:00;;;;;;;10.70;5.82;;;;;;;;;;4934881;28;20062;-67
2023/07/01 08:56:49;;;;;;;10.90;5.32;;;;;;;;;;4916576;29;20060;-67
2023/07/01 08:59:17;;;;;;;8.95;5.30;;;;;;;;;;4915927;29;20874;-67
2023/07/01 09:01:44;;;;;;;12.70;5.68;;;;;;;;;;4918452;28;20047;-67
2023/07/01 09:04:11;;;;;;;11.57;5.53;;;;;;;;;;4919783;28;20220;-67
2023/07/01 09:06:37;;;;;;;10.73;5.88;;;;;;;;;;4955479;28;20098;-69
2023/07/01 09:09:04;;;;;;;10.05;5.65;;;;;;;;;;4956156;28;20692;-67
2023/07/01 09:11:31;;;;;;;10.73;5.72;;;;;;;;;;4954848;28;20547;-65
2023/07/01 09:13:57;;;;;;;13.48;5.57;;;;;;;;;;4956858;28;20050;-66
2023/07/01 09:16:34;;;;;;;8.82;5.40;;;;;;;;;;4956549;28;20039;-66
2023/07/01 09:19:10;;;;;;;11.48;5.63;;;;;;;;;;4953649;28;20047;-66
2023/07/01 09:21:38;;;;;;;17.15;6.28;;;;;;;;;;4954734;28;20587;-66
2023/07/01 09:24:06;;;;;;;9.90;6.57;;;;;;;;;;4956462;28;20130;-66
2023/07/01 09:26:33;;;;;;;12.77;6.40;;;;;;;;;;4936045;28;20051;-66
2023/07/01 09:29:00;;;;;;;11.27;6.32;;;;;;;;;;4963111;28;20613;-66
2023/07/01 09:31:26;;;;;;;10.85;5.95;;;;;;;;;;4968989;28;20152;-67
2023/07/01 09:34:03;;;;;;;10.55;6.03;;;;;;;;;;4975651;28;20042;-65
2023/07/01 09:36:31;;;;;;;10.73;6.20;;;;;;;;;;4983205;28;20134;-66
2023/07/01 09:38:59;;;;;;;10.88;6.35;;;;;;;;;;4984836;28;20129;-66
2023/07/01 09:41:30;;;;;;;13.30;6.90;;;;;;;;;;4985503;28;20052;-66
2023/07/01 09:44:00;;;;;;;11.77;6.88;;;;;;;;;;4984471;28;20042;-66
2023/07/01 09:46:41;;;;;;;12.13;7.05;;;;;;;;;;4984732;28;20898;-66
2023/07/01 09:49:08;;;;;;;10.52;5.97;;;;;;;;;;4990866;28;20081;-67
2023/07/01 09:51:45;;;;;;;13.00;6.38;;;;;;;;;;4988176;28;20045;-65
2023/07/01 09:54:24;;;;;;;10.70;6.40;;;;;;;;;;4988561;28;20065;-65
2023/07/01 09:56:51;;;;;;;13.88;7.15;;;;;;;;;;4986479;28;20042;-67
2023/07/01 09:59:18;;;;;;;12.90;6.65;;;;;;;;;;4987748;28;20058;-66
2023/07/01 10:01:45;;;;;;;15.15;7.15;;;;;;;;;;4971249;28;20144;-66
2023/07/01 10:04:12;;;;;;;12.93;6.85;;;;;;;;;;4991288;28;20048;-66
2023/07/01 10:06:39;;;;;;;10.90;6.93;;;;;;;;;;4986613;28;20113;-66
2023/07/01 10:09:06;;;;;;;11.48;6.50;;;;;;;;;;4984924;28;20793;-66
2023/07/01 10:11:33;;;;;;;12.68;7.22;;;;;;;;;;4982150;28;20042;-66
2023/07/01 10:14:03;;;;;;;10.10;6.22;;;;;;;;;;4973320;28;20061;-66
2023/07/01 10:16:29;;;;;;;12.60;6.95;;;;;;;;;;4981923;28;20034;-66
2023/07/01 10:18:56;;;;;;;10.93;6.72;;;;;;;;;;4988371;28;20065;-66
2023/07/01 10:21:25;;;;;;;10.70;6.88;;;;;;;;;;4984113;28;20026;-66
2023/07/01 10:23:52;;;;;;;12.40;7.13;;;;;;;;;;4987012;28;21349;-67
2023/07/01 10:26:47;;;;;;;12.05;7.43;;;;;;;;;;4985275;28;20483;-67
2023/07/01 10:29:28;;;;;;;11.18;6.60;;;;;;;;;;4984528;28;20060;-67
2023/07/01 10:32:13;;;;;;;10.15;6.15;;;;;;;;;;4983622;28;20043;-66
2023/07/01 10:35:03;;;;;;;10.88;6.05;;;;;;;;;;4982433;28;20065;-68
2023/07/01 10:37:34;;;;;;;14.55;6.85;;;;;;;;;;4982990;28;20102;-67
2023/07/01 10:40:07;;;;;;;9.95;6.45;;;;;;;;;;4985352;28;20041;-66
2023/07/01 10:42:36;;;;;;;12.27;6.88;;;;;;;;;;4984224;28;20041;-68
2023/07/01 10:45:12;;;;;;;12.02;7.13;;;;;;;;;;4985102;28;20042;-65
2023/07/01 10:47:48;;;;;;;11.10;6.70;;;;;;;;;;4982443;28;20049;-65
2023/07/01 10:50:15;;;;;;;11.70;6.35;;;;;;;;;;4984496;28;20042;-65
2023/07/01 10:52:58;;;;;;;11.35;7.10;;;;;;;;;;4984243;28;20105;-68
2023/07/01 10:55:44;;;;;;;10.20;6.27;;;;;;;;;;4984187;28;20045;-67
2023/07/01 10:58:25;;;;;;;11.65;6.93;;;;;;;;;;4987749;28;20049;-65
2023/07/01 11:00:52;;;;;;;10.73;6.85;;;;;;;;;;4983467;28;20037;-66
2023/07/01 11:03:43;;;;;;;11.05;6.70;;;;;;;;;;4986211;28;20038;-65
2023/07/01 11:06:10;;;;;;;11.27;6.15;;;;;;;;;;4975907;28;20436;-66
2023/07/01 11:08:46;;;;;;;11.10;6.70;;;;;;;;;;4974137;28;20128;-66
2023/07/01 11:11:18;;;;;;;12.13;6.60;;;;;;;;;;4987351;28;20066;-65
2023/07/01 11:13:54;;;;;;;12.20;6.80;;;;;;;;;;4982076;28;20038;-65
2023/07/01 11:16:21;;;;;;;10.18;6.50;;;;;;;;;;4981407;28;20034;-69
2023/07/01 11:18:49;;;;;;;11.10;7.15;;;;;;;;;;4987895;28;20061;-66
2023/07/01 11:21:19;;;;;;;11.23;6.32;;;;;;;;;;4987044;28;20125;-66
2023/07/01 11:24:18;;;;;;;15.27;6.40;;;;;;;;;;4986483;28;20053;-66
2023/07/01 11:26:45;;;;;;;11.38;6.15;;;;;;;;;;4941133;28;20046;-66
2023/07/01 11:29:16;;;;;;;9.45;5.88;;;;;;;;;;4985422;28;20070;-65
2023/07/01 11:31:43;;;;;;;10.02;6.28;;;;;;;;;;4986796;28;20120;-65
2023/07/01 11:34:18;;;;;;;13.85;6.10;;;;;;;;;;4985242;28;20084;-66
2023/07/01 11:36:48;;;;;;;11.60;6.50;;;;;;;;;;4985912;28;20520;-66
2023/07/01 11:39:15;;;;;;;11.23;6.85;;;;;;;;;;4984415;28;20046;-66
2023/07/01 11:41:43;;;;;;;13.57;6.32;;;;;;;;;;4987448;28;20135;-66
2023/07/01 11:44:11;;;;;;;15.35;6.88;;;;;;;;;;4989318;28;20701;-66
2023/07/01 11:46:39;;;;;;;10.98;6.20;;;;;;;;;;4982709;28;20064;-66
2023/07/01 11:49:13;;;;;;;10.25;6.50;;;;;;;;;;4982900;28;20090;-66
2023/07/01 11:51:40;;;;;;;11.05;6.35;;;;;;;;;;4983758;28;20085;-65
2023/07/01 11:54:07;;;;;;;10.35;6.55;;;;;;;;;;4980703;28;20037;-66
2023/07/01 11:56:33;;;;;;;11.30;6.40;;;;;;;;;;4983399;28;20119;-66
2023/07/01 11:59:00;;;;;;;9.45;6.13;;;;;;;;;;4987014;28;20049;-66
2023/07/01 12:01:27;;;;;;;11.63;6.88;;;;;;;;;;4981905;28;20042;-66
2023/07/01 12:03:54;;;;;;;10.35;6.50;;;;;;;;;;4984045;28;20046;-67
2023/07/01 12:06:22;;;;;;;11.75;7.20;;;;;;;;;;4982477;28;20093;-65
2023/07/01 12:08:56;;;;;;;11.60;6.95;;;;;;;;;;4971109;28;20120;-64
2023/07/01 12:11:23;;;;;;;11.93;6.70;;;;;;;;;;4983595;28;20418;-65
2023/07/01 12:13:50;;;;;;;14.18;6.07;;;;;;;;;;4983672;28;20042;-64
2023/07/01 12:16:17;;;;;;;10.68;6.63;;;;;;;;;;4984649;28;20034;-65
2023/07/01 12:18:44;;;;;;;12.15;6.47;;;;;;;;;;4985605;28;20042;-65
2023/07/01 12:21:11;;;;;;;12.93;6.85;;;;;;;;;;4984799;28;20675;-65
2023/07/01 12:23:44;;;;;;;11.65;6.43;;;;;;;;;;4984059;28;20041;-65
2023/07/01 12:26:11;;;;;;;11.70;6.75;;;;;;;;;;4984790;28;20061;-65
2023/07/01 12:28:41;;;;;;;13.13;7.07;;;;;;;;;;4983930;28;20050;-65
2023/07/01 12:31:08;;;;;;;13.48;6.43;;;;;;;;;;4995978;28;20042;-65
2023/07/01 12:33:35;;;;;;;12.82;6.40;;;;;;;;;;4995240;28;20045;-66
2023/07/01 12:36:02;;;;;;;11.07;6.35;;;;;;;;;;4997203;28;20045;-65
2023/07/01 12:38:29;;;;;;;10.75;6.47;;;;;;;;;;4995119;28;20042;-65
2023/07/01 12:40:57;;;;;;;12.73;6.38;;;;;;;;;;4992463;28;20038;-65
2023/07/01 12:43:27;;;;;;;12.05;6.57;;;;;;;;;;4990916;28;20039;-66
2023/07/01 12:45:54;;;;;;;10.02;6.05;;;;;;;;;;4993256;28;20564;-66
2023/07/01 12:48:21;;;;;;;12.05;6.85;;;;;;;;;;4997188;28;20486;-65
2023/07/01 12:50:48;;;;;;;12.85;6.25;;;;;;;;;;4997866;28;20049;-66
2023/07/01 12:53:17;;;;;;;11.02;6.43;;;;;;;;;;4999826;28;20069;-65
2023/07/01 12:55:49;;;;;;;12.02;6.40;;;;;;;;;;4997439;28;20053;-65
2023/07/01 12:58:16;;;;;;;10.98;6.13;;;;;;;;;;4996846;28;20053;-66
2023/07/01 13:00:43;;;;;;;11.20;6.30;;;;;;;;;;4995934;28;20420;-66
2023/07/01 13:03:10;;;;;;;8.75;5.50;;;;;;;;;;4992914;28;20069;-64
2023/07/01 13:05:36;;;;;;;10.88;5.97;;;;;;;;;;4990567;28;20041;-65
2023/07/01 13:08:04;;;;;;;9.38;6.28;;;;;;;;;;4994789;28;20049;-66
2023/07/01 13:10:30;;;;;;;8.98;5.75;;;;;;;;;;4991474;28;20042;-67
2023/07/01 13:12:58;;;;;;;10.75;6.07;;;;;;;;;;4979920;28;20042;-67
2023/07/01 13:15:30;;;;;;;11.05;6.47;;;;;;;;;;4991080;28;20034;-71
2023/07/01 13:17:57;;;;;;;10.35;5.88;;;;;;;;;;4987601;28;20607;-67
2023/07/01 13:20:26;;;;;;;10.35;6.28;;;;;;;;;;4990806;28;20453;-68
2023/07/01 13:22:55;;;;;;;10.50;5.60;;;;;;;;;;4991107;28;20104;-67
2023/07/01 13:25:23;;;;;;;9.98;6.32;;;;;;;;;;4992320;28;20046;-67
2023/07/01 13:27:50;;;;;;;8.80;5.47;;;;;;;;;;4992220;28;20057;-65
2023/07/01 13:30:37;;;;;;;11.73;6.20;;;;;;;;;;4989239;28;20064;-65
2023/07/01 13:33:04;;;;;;;12.20;6.28;;;;;;;;;;4991777;28;20038;-65
2023/07/01 13:35:31;;;;;;;12.07;7.07;;;;;;;;;;4989476;28;20136;-66
2023/07/01 13:38:08;;;;;;;10.73;6.47;;;;;;;;;;4988927;28;20410;-65
2023/07/01 13:40:40;;;;;;;12.80;6.97;;;;;;;;;;4985769;28;20034;-67
2023/07/01 13:43:11;;;;;;;11.65;6.57;;;;;;;;;;4987049;28;20049;-66
2023/07/01 13:45:37;;;;;;;10.05;6.60;;;;;;;;;;4984344;28;20763;-68
2023/07/01 13:48:04;;;;;;;12.07;6.88;;;;;;;;;;4983435;28;20046;-65
2023/07/01 13:50:31;;;;;;;10.23;6.38;;;;;;;;;;4980549;28;20053;-67
2023/07/01 13:52:58;;;;;;;13.55;7.13;;;;;;;;;;4985531;28;20081;-66
2023/07/01 13:55:25;;;;;;;12.18;7.53;;;;;;;;;;4985113;28;20127;-67
2023/07/01 13:57:53;;;;;;;11.23;6.97;;;;;;;;;;4988577;28;20045;-64
2023/07/01 14:00:22;;;;;;;11.48;6.65;;;;;;;;;;4988907;28;20049;-65
2023/07/01 14:02:49;;;;;;;10.32;6.95;;;;;;;;;;4990114;28;20046;-65
2023/07/01 14:05:16;;;;;;;12.02;6.45;;;;;;;;;;4989792;28;20052;-64
2023/07/01 14:07:42;;;;;;;13.02;7.18;;;;;;;;;;4987003;28;20065;-66
2023/07/01 14:10:20;;;;;;;9.93;6.47;;;;;;;;;;4986081;28;20045;-65
2023/07/01 14:12:47;;;;;;;9.75;6.43;;;;;;;;;;4983528;28;20038;-66
2023/07/01 14:15:33;;;;;;;10.57;6.45;;;;;;;;;;4984685;28;20045;-65
2023/07/01 14:18:00;;;;;;;11.52;6.55;;;;;;;;;;4984505;28;20507;-65
2023/07/01 14:20:27;;;;;;;13.45;6.47;;;;;;;;;;4984145;28;20091;-67
2023/07/01 14:22:58;;;;;;;10.80;6.88;;;;;;;;;;4982377;28;20125;-67
2023/07/01 14:25:37;;;;;;;10.77;5.97;;;;;;;;;;4982756;28;20402;-65
2023/07/01 14:28:04;;;;;;;12.45;6.75;;;;;;;;;;4970518;28;20062;-65
2023/07/01 14:30:48;;;;;;;11.23;6.55;;;;;;;;;;4984013;28;20041;-67
2023/07/01 14:33:15;;;;;;;10.05;6.00;;;;;;;;;;4984546;28;20164;-65
2023/07/01 14:35:42;;;;;;;10.65;6.72;;;;;;;;;;4984327;28;20044;-66
2023/07/01 14:38:09;;;;;;;13.27;7.20;;;;;;;;;;4986583;28;20380;-66
2023/07/01 14:40:36;;;;;;;11.60;7.22;;;;;;;;;;4983840;28;20042;-64
2023/07/01 14:43:11;;;;;;;13.32;7.22;;;;;;;;;;4986373;28;20431;-64
2023/07/01 14:45:41;;;;;;;13.43;7.97;;;;;;;;;;4981796;28;20084;-66